createdAt,value
2022-08-21T00:02:03.730Z,19.10
2022-08-21T00:04:31.566Z,19.10
2022-08-21T00:07:00.547Z,19.10
2022-08-21T00:09:27.427Z,19.10
2022-08-21T00:11:54.202Z,19.00
2022-08-21T00:14:22.253Z,19.00
2022-08-21T00:16:49.046Z,19.00
2022-08-21T00:19:15.785Z,19.00
2022-08-21T00:21:44.388Z,19.00
2022-08-21T00:24:11.861Z,19.00
2022-08-21T00:26:38.552Z,18.90
2022-08-21T00:29:05.348Z,18.90
2022-08-21T00:31:33.632Z,18.90
2022-08-21T00:34:01.307Z,18.90
2022-08-21T00:36:28.371Z,18.90
2022-08-21T00:38:55.136Z,18.90
2022-08-21T00:41:38.535Z,18.90
2022-08-21T00:44:06.360Z,18.90
2022-08-21T00:46:34.623Z,18.90
2022-08-21T00:49:01.569Z,18.80
2022-08-21T00:51:38.214Z,18.80
2022-08-21T00:54:06.763Z,18.80
2022-08-21T00:56:40.819Z,18.80
2022-08-21T00:59:10.888Z,18.80
2022-08-21T01:01:39.095Z,18.80
2022-08-21T01:04:05.921Z,18.70
2022-08-21T01:06:32.643Z,18.70
2022-08-21T01:08:59.481Z,18.70
2022-08-21T01:11:26.335Z,18.70
2022-08-21T01:13:54.079Z,18.70
2022-08-21T01:16:22.660Z,18.70
2022-08-21T01:18:51.762Z,18.60
2022-08-21T01:21:22.464Z,18.50
2022-08-21T01:23:56.328Z,18.60
2022-08-21T01:26:33.694Z,18.60
2022-08-21T01:29:15.736Z,18.60
2022-08-21T01:31:42.700Z,18.50
2022-08-21T01:34:11.853Z,18.50
2022-08-21T01:36:40.030Z,18.50
2022-08-21T01:39:07.007Z,18.50
2022-08-21T01:41:33.997Z,18.50
2022-08-21T01:44:00.773Z,18.50
2022-08-21T01:46:27.775Z,18.40
2022-08-21T01:48:54.584Z,18.40
2022-08-21T01:51:21.518Z,18.40
2022-08-21T01:53:49.685Z,18.40
2022-08-21T01:56:17.581Z,18.40
2022-08-21T01:58:49.117Z,18.40
2022-08-21T02:01:16.350Z,18.30
2022-08-21T02:03:43.276Z,18.30
2022-08-21T02:06:15.311Z,18.30
2022-08-21T02:08:42.083Z,18.30
2022-08-21T02:11:10.415Z,18.30
2022-08-21T02:13:37.234Z,18.30
2022-08-21T02:16:04.518Z,18.30
2022-08-21T02:18:31.254Z,18.10
2022-08-21T02:20:58.120Z,18.10
2022-08-21T02:23:26.916Z,18.20
2022-08-21T02:25:54.349Z,18.20
2022-08-21T02:28:22.479Z,18.20
2022-08-21T02:30:50.042Z,18.20
2022-08-21T02:33:17.606Z,18.20
2022-08-21T02:35:46.110Z,18.10
2022-08-21T02:38:15.563Z,18.10
2022-08-21T02:40:48.207Z,18.10
2022-08-21T02:43:19.174Z,18.10
2022-08-21T02:45:48.314Z,18.00
2022-08-21T02:48:18.534Z,17.90
2022-08-21T02:50:48.288Z,17.90
2022-08-21T02:53:16.477Z,18.10
2022-08-21T02:55:45.018Z,18.10
2022-08-21T02:58:12.295Z,18.00
2022-08-21T03:00:40.438Z,18.00
2022-08-21T03:03:08.565Z,18.00
2022-08-21T03:05:36.408Z,18.00
2022-08-21T03:08:05.870Z,17.90
2022-08-21T03:10:32.705Z,17.90
2022-08-21T03:12:59.555Z,17.80
2022-08-21T03:15:26.447Z,17.80
2022-08-21T03:17:53.783Z,17.90
2022-08-21T03:20:27.942Z,17.80
2022-08-21T03:22:55.060Z,17.80
2022-08-21T03:25:28.370Z,17.80
2022-08-21T03:28:09.041Z,17.70
2022-08-21T03:30:40.329Z,17.80
2022-08-21T03:33:07.085Z,17.80
2022-08-21T03:35:35.176Z,17.80
2022-08-21T03:38:01.975Z,17.80
2022-08-21T03:40:28.893Z,17.80
2022-08-21T03:42:55.653Z,17.60
2022-08-21T03:45:22.775Z,17.60
2022-08-21T03:47:54.731Z,17.50
2022-08-21T03:50:21.531Z,17.40
2022-08-21T03:52:50.090Z,17.50
2022-08-21T03:55:17.142Z,17.50
2022-08-21T03:57:43.958Z,17.40
2022-08-21T04:00:12.417Z,17.40
2022-08-21T04:02:39.555Z,17.50
2022-08-21T04:05:07.919Z,17.50
2022-08-21T04:07:34.835Z,17.60
2022-08-21T04:10:03.622Z,17.50
2022-08-21T04:12:30.396Z,17.50
2022-08-21T04:14:57.151Z,17.50
2022-08-21T04:17:23.907Z,17.40
2022-08-21T04:19:53.845Z,17.40
2022-08-21T04:22:20.895Z,17.40
2022-08-21T04:24:47.646Z,17.40
2022-08-21T04:27:15.709Z,17.50
2022-08-21T04:29:42.473Z,17.50
2022-08-21T04:32:09.213Z,17.50
2022-08-21T04:34:35.995Z,17.50
2022-08-21T04:37:02.777Z,17.50
2022-08-21T04:39:29.906Z,17.50
2022-08-21T04:41:56.963Z,17.40
2022-08-21T04:44:25.057Z,17.40
2022-08-21T04:46:51.798Z,17.40
2022-08-21T04:49:18.564Z,17.40
2022-08-21T04:51:45.431Z,17.30
2022-08-21T04:54:16.870Z,17.30
2022-08-21T04:56:46.628Z,17.30
2022-08-21T04:59:18.204Z,17.30
2022-08-21T05:01:46.654Z,17.40
2022-08-21T05:04:17.369Z,17.50
2022-08-21T05:06:46.823Z,17.50
2022-08-21T05:09:15.559Z,17.40
2022-08-21T05:11:42.986Z,17.50
2022-08-21T05:14:09.923Z,17.50
2022-08-21T05:16:37.579Z,17.50
2022-08-21T05:19:06.137Z,17.50
2022-08-21T05:21:33.224Z,17.60
2022-08-21T05:24:00.592Z,17.60
2022-08-21T05:26:27.423Z,17.60
2022-08-21T05:28:54.154Z,17.60
2022-08-21T05:31:20.891Z,17.60
2022-08-21T05:33:47.751Z,17.60
2022-08-21T05:36:15.880Z,17.60
2022-08-21T05:38:42.618Z,17.60
2022-08-21T05:41:09.413Z,17.70
2022-08-21T05:43:36.267Z,17.70
2022-08-21T05:46:03.484Z,17.70
2022-08-21T05:48:30.304Z,17.70
2022-08-21T05:50:57.145Z,17.70
2022-08-21T05:53:26.074Z,17.80
2022-08-21T05:55:53.077Z,17.80
2022-08-21T05:58:21.736Z,17.80
2022-08-21T06:00:49.998Z,17.80
2022-08-21T06:03:19.334Z,17.80
2022-08-21T06:05:46.412Z,17.80
2022-08-21T06:08:14.549Z,17.80
2022-08-21T06:10:43.111Z,17.90
2022-08-21T06:13:10.375Z,17.90
2022-08-21T06:15:37.212Z,18.00
2022-08-21T06:18:04.318Z,18.00
2022-08-21T06:20:31.591Z,18.00
2022-08-21T06:22:58.549Z,18.00
2022-08-21T06:25:25.712Z,18.00
2022-08-21T06:27:53.909Z,18.10
2022-08-21T06:30:21.181Z,18.10
2022-08-21T06:32:47.917Z,18.10
2022-08-21T06:35:14.671Z,18.20
2022-08-21T06:37:41.407Z,18.30
2022-08-21T06:40:12.453Z,18.20
2022-08-21T06:42:42.672Z,18.30
2022-08-21T06:45:11.627Z,18.30
2022-08-21T06:47:38.475Z,18.40
2022-08-21T06:50:06.909Z,18.40
2022-08-21T06:52:33.693Z,18.50
2022-08-21T06:55:00.463Z,18.50
2022-08-21T06:57:27.336Z,18.50
2022-08-21T06:59:54.113Z,18.50
2022-08-21T07:02:22.569Z,18.60
2022-08-21T07:04:49.328Z,18.60
2022-08-21T07:07:16.191Z,18.70
2022-08-21T07:09:42.965Z,18.70
2022-08-21T07:12:10.195Z,18.70
2022-08-21T07:14:37.074Z,18.80
2022-08-21T07:17:04.290Z,18.80
2022-08-21T07:19:32.377Z,18.80
2022-08-21T07:22:02.341Z,18.90
2022-08-21T07:24:29.423Z,18.90
2022-08-21T07:26:56.508Z,18.90
2022-08-21T07:29:23.287Z,19.00
2022-08-21T07:31:50.068Z,19.00
2022-08-21T07:34:17.680Z,19.00
2022-08-21T07:36:45.760Z,19.00
2022-08-21T07:39:12.878Z,19.10
2022-08-21T07:41:39.679Z,19.10
2022-08-21T07:44:06.650Z,19.10
2022-08-21T07:46:33.841Z,19.20
2022-08-21T07:49:00.593Z,19.20
2022-08-21T07:51:29.831Z,19.20
2022-08-21T07:53:58.916Z,19.20
2022-08-21T07:56:25.722Z,19.30
2022-08-21T07:58:52.729Z,19.20
2022-08-21T08:01:20.457Z,19.30
2022-08-21T08:03:47.350Z,19.30
2022-08-21T08:06:14.155Z,19.30
2022-08-21T08:08:42.077Z,19.30
2022-08-21T08:11:11.262Z,19.40
2022-08-21T08:13:40.194Z,19.40
2022-08-21T08:16:07.530Z,19.40
2022-08-21T08:18:34.365Z,19.40
2022-08-21T08:21:01.327Z,19.40
2022-08-21T08:23:28.147Z,19.50
2022-08-21T08:25:54.931Z,19.50
2022-08-21T08:28:23.037Z,19.50
2022-08-21T08:30:49.811Z,19.50
2022-08-21T08:33:17.184Z,19.50
2022-08-21T08:35:47.287Z,19.60
2022-08-21T08:38:15.393Z,19.60
2022-08-21T08:40:51.658Z,19.60
2022-08-21T08:43:19.318Z,19.60
2022-08-21T08:45:51.071Z,19.70
2022-08-21T08:48:35.509Z,19.70
2022-08-21T08:51:03.068Z,19.70
2022-08-21T08:53:33.887Z,19.70
2022-08-21T08:56:02.363Z,19.70
2022-08-21T08:58:32.719Z,19.80
2022-08-21T09:01:02.359Z,19.80
2022-08-21T09:03:29.678Z,19.80
2022-08-21T09:06:04.738Z,19.90
2022-08-21T09:08:46.260Z,19.90
2022-08-21T09:11:23.773Z,19.90
2022-08-21T09:13:56.750Z,20.00
2022-08-21T09:16:36.365Z,20.00
2022-08-21T09:19:09.866Z,20.00
2022-08-21T09:21:45.373Z,20.00
2022-08-21T09:24:26.673Z,20.00
2022-08-21T09:27:00.685Z,20.00
2022-08-21T09:29:30.870Z,20.10
2022-08-21T09:31:58.961Z,20.10
2022-08-21T09:34:27.959Z,20.10
2022-08-21T09:36:54.719Z,20.20
2022-08-21T09:39:25.965Z,20.20
2022-08-21T09:41:58.276Z,20.30
2022-08-21T09:44:27.597Z,20.30
2022-08-21T09:46:54.452Z,20.30
2022-08-21T09:49:30.679Z,20.30
2022-08-21T09:51:59.492Z,20.30
2022-08-21T09:54:30.806Z,20.30
2022-08-21T09:56:59.899Z,20.30
2022-08-21T09:59:31.820Z,20.30
2022-08-21T10:02:20.107Z,20.30
2022-08-21T10:04:51.709Z,20.40
2022-08-21T10:07:22.767Z,20.40
2022-08-21T10:10:00.505Z,20.40
2022-08-21T10:12:33.707Z,20.40
2022-08-21T10:15:08.727Z,20.40
2022-08-21T10:17:50.484Z,20.50
2022-08-21T10:20:24.341Z,20.50
2022-08-21T10:23:02.470Z,20.60
2022-08-21T10:25:37.726Z,20.60
2022-08-21T10:28:14.010Z,20.60
2022-08-21T10:30:49.253Z,20.70
2022-08-21T10:33:26.115Z,20.70
2022-08-21T10:36:03.612Z,20.70
2022-08-21T10:39:26.614Z,20.70
2022-08-21T10:42:08.252Z,20.70
2022-08-21T10:44:45.612Z,20.80
2022-08-21T10:47:22.332Z,20.80
2022-08-21T10:49:59.594Z,20.80
2022-08-21T10:52:48.803Z,20.90
2022-08-21T10:55:18.521Z,20.90
2022-08-21T10:57:50.237Z,20.90
2022-08-21T11:00:20.268Z,20.90
2022-08-21T11:02:53.394Z,20.90
2022-08-21T11:05:25.022Z,20.90
2022-08-21T11:07:56.967Z,20.90
2022-08-21T11:10:33.346Z,20.90
2022-08-21T11:13:05.546Z,20.90
2022-08-21T11:15:39.716Z,20.90
2022-08-21T11:18:18.206Z,20.90
2022-08-21T11:20:51.388Z,21.00
2022-08-21T11:23:25.881Z,21.00
2022-08-21T11:25:58.896Z,21.00
2022-08-21T11:28:30.248Z,21.00
2022-08-21T11:31:08.268Z,21.10
2022-08-21T11:33:51.553Z,21.10
2022-08-21T11:36:30.372Z,21.10
2022-08-21T11:39:07.362Z,21.10
2022-08-21T11:41:41.460Z,21.10
2022-08-21T11:44:11.233Z,21.10
2022-08-21T11:46:48.622Z,21.10
2022-08-21T11:49:42.296Z,21.10
2022-08-21T11:52:17.382Z,21.10
2022-08-21T11:54:49.326Z,21.10
2022-08-21T11:57:21.085Z,21.20
2022-08-21T11:59:59.746Z,21.20
2022-08-21T12:02:35.111Z,21.20
2022-08-21T12:05:08.657Z,21.20
2022-08-21T12:07:39.033Z,21.30
2022-08-21T12:10:11.282Z,21.30
2022-08-21T12:12:46.073Z,21.30
2022-08-21T12:15:28.135Z,21.40
2022-08-21T12:18:00.909Z,21.40
2022-08-21T12:20:37.916Z,21.40
2022-08-21T12:23:17.378Z,21.40
2022-08-21T12:25:48.629Z,21.40
2022-08-21T12:28:22.543Z,21.50
2022-08-21T12:30:51.325Z,21.50
2022-08-21T12:33:23.971Z,21.50
2022-08-21T12:35:53.640Z,21.50
2022-08-21T12:38:24.594Z,21.60
2022-08-21T12:40:56.969Z,21.50
2022-08-21T12:43:30.042Z,21.60
2022-08-21T12:45:57.292Z,21.60
2022-08-21T12:48:44.708Z,21.60
2022-08-21T12:51:13.909Z,21.70
2022-08-21T12:53:47.962Z,21.60
2022-08-21T12:56:16.837Z,21.70
2022-08-21T12:58:47.940Z,21.70
2022-08-21T13:01:21.662Z,21.70
2022-08-21T13:03:49.106Z,21.80
2022-08-21T13:06:37.771Z,21.80
2022-08-21T13:09:08.539Z,21.90
2022-08-21T13:11:36.963Z,21.90
2022-08-21T13:14:18.621Z,21.80
2022-08-21T13:16:46.624Z,21.80
2022-08-21T13:19:21.929Z,21.90
2022-08-21T13:21:51.322Z,21.80
2022-08-21T13:24:41.218Z,21.80
2022-08-21T13:27:22.445Z,21.80
2022-08-21T13:29:53.407Z,21.90
2022-08-21T13:32:26.568Z,21.90
2022-08-21T13:34:54.217Z,21.90
2022-08-21T13:37:23.598Z,22.00
2022-08-21T13:39:52.310Z,22.00
2022-08-21T13:42:20.988Z,22.00
2022-08-21T13:44:49.033Z,22.00
2022-08-21T13:47:17.635Z,22.00
2022-08-21T13:49:50.169Z,22.00
2022-08-21T13:52:20.687Z,22.00
2022-08-21T13:54:55.883Z,22.00
2022-08-21T13:57:29.495Z,22.00
2022-08-21T14:00:11.939Z,22.10
2022-08-21T14:02:40.736Z,22.10
2022-08-21T14:05:08.098Z,22.10
2022-08-21T14:07:38.504Z,22.10
2022-08-21T14:10:07.657Z,22.10
2022-08-21T14:12:42.231Z,22.10
2022-08-21T14:15:13.302Z,22.10
2022-08-21T14:17:41.305Z,22.10
2022-08-21T14:20:12.838Z,22.20
2022-08-21T14:22:41.673Z,22.20
2022-08-21T14:25:12.923Z,22.20
2022-08-21T14:27:45.057Z,22.20
2022-08-21T14:30:17.092Z,22.50
2022-08-21T14:32:54.863Z,22.40
2022-08-21T14:35:23.618Z,22.30
2022-08-21T14:37:52.111Z,22.40
2022-08-21T14:40:20.070Z,22.30
2022-08-21T14:42:48.615Z,22.30
2022-08-21T14:45:18.217Z,22.30
2022-08-21T14:47:50.619Z,22.30
2022-08-21T14:50:17.577Z,22.30
2022-08-21T14:52:44.411Z,22.30
2022-08-21T14:55:11.234Z,22.40
2022-08-21T14:57:38.303Z,22.40
2022-08-21T15:00:08.516Z,22.40
2022-08-21T15:02:37.988Z,22.40
2022-08-21T15:05:05.794Z,22.40
2022-08-21T15:07:32.578Z,22.50
2022-08-21T15:09:59.337Z,22.50
2022-08-21T15:12:26.408Z,22.50
2022-08-21T15:14:53.459Z,22.50
2022-08-21T15:17:21.657Z,22.60
2022-08-21T15:19:48.428Z,22.60
2022-08-21T15:22:19.082Z,22.60
2022-08-21T15:24:54.449Z,22.60
2022-08-21T15:27:21.235Z,22.90
2022-08-21T15:29:48.144Z,22.80
2022-08-21T15:32:21.727Z,22.80
2022-08-21T15:34:48.614Z,22.80
2022-08-21T15:37:15.444Z,22.80
2022-08-21T15:39:42.248Z,22.80
2022-08-21T15:42:11.909Z,22.80
2022-08-21T15:44:40.352Z,22.80
2022-08-21T15:47:07.788Z,22.90
2022-08-21T15:49:35.879Z,22.90
2022-08-21T15:52:03.032Z,22.80
2022-08-21T15:54:29.796Z,22.90
2022-08-21T15:56:56.636Z,22.90
2022-08-21T15:59:23.605Z,23.20
2022-08-21T16:01:51.279Z,23.10
2022-08-21T16:04:22.584Z,23.10
2022-08-21T16:06:53.948Z,23.00
2022-08-21T16:09:23.171Z,23.00
2022-08-21T16:11:50.139Z,23.00
2022-08-21T16:14:17.738Z,23.00
2022-08-21T16:16:44.791Z,23.10
2022-08-21T16:19:12.386Z,23.10
2022-08-21T16:21:39.566Z,23.10
2022-08-21T16:24:07.964Z,23.00
2022-08-21T16:26:34.820Z,23.00
2022-08-21T16:29:04.083Z,23.00
2022-08-21T16:31:31.747Z,23.00
2022-08-21T16:33:58.727Z,22.90
2022-08-21T16:36:26.378Z,22.90
2022-08-21T16:38:53.541Z,22.90
2022-08-21T16:41:23.439Z,22.90
2022-08-21T16:43:51.498Z,22.90
2022-08-21T16:46:20.587Z,22.80
2022-08-21T16:48:47.813Z,22.90
2022-08-21T16:51:15.473Z,22.80
2022-08-21T16:53:42.551Z,22.80
2022-08-21T16:56:10.263Z,22.70
2022-08-21T16:58:41.241Z,22.70
2022-08-21T17:01:10.368Z,22.70
2022-08-21T17:03:39.805Z,22.70
2022-08-21T17:06:07.623Z,22.60
2022-08-21T17:08:34.963Z,22.60
2022-08-21T17:11:02.923Z,22.70
2022-08-21T17:13:30.613Z,22.60
2022-08-21T17:15:58.760Z,22.60
2022-08-21T17:18:26.311Z,22.60
2022-08-21T17:20:53.233Z,22.60
2022-08-21T17:23:20.491Z,22.60
2022-08-21T17:25:50.807Z,22.60
2022-08-21T17:28:22.214Z,22.60
2022-08-21T17:30:49.233Z,22.60
2022-08-21T17:33:19.139Z,22.50
2022-08-21T17:35:45.953Z,22.60
2022-08-21T17:38:14.724Z,22.50
2022-08-21T17:40:42.112Z,22.60
2022-08-21T17:43:13.213Z,22.50
2022-08-21T17:45:40.358Z,22.50
2022-08-21T17:48:07.720Z,22.50
2022-08-21T17:50:36.262Z,22.50
2022-08-21T17:53:03.552Z,22.50
2022-08-21T17:55:31.501Z,22.50
2022-08-21T17:57:58.543Z,22.40
2022-08-21T18:00:26.272Z,22.40
2022-08-21T18:03:00.775Z,22.40
2022-08-21T18:05:28.150Z,22.30
2022-08-21T18:07:56.458Z,22.30
2022-08-21T18:10:23.787Z,22.30
2022-08-21T18:12:50.869Z,22.30
2022-08-21T18:15:19.387Z,22.30
2022-08-21T18:17:47.907Z,22.20
2022-08-21T18:20:17.227Z,22.20
2022-08-21T18:22:44.115Z,22.20
2022-08-21T18:25:12.587Z,22.10
2022-08-21T18:27:40.887Z,22.10
2022-08-21T18:30:10.142Z,22.10
2022-08-21T18:32:36.963Z,22.10
2022-08-21T18:35:05.207Z,22.00
2022-08-21T18:37:32.095Z,22.00
2022-08-21T18:39:59.302Z,22.00
2022-08-21T18:42:30.588Z,21.90
2022-08-21T18:45:01.459Z,21.90
2022-08-21T18:47:32.778Z,21.80
2022-08-21T18:49:59.718Z,21.70
2022-08-21T18:52:28.623Z,21.70
2022-08-21T18:54:55.797Z,21.60
2022-08-21T18:57:23.845Z,21.60
2022-08-21T18:59:52.012Z,21.60
2022-08-21T19:02:19.391Z,21.60
2022-08-21T19:04:46.263Z,21.60
2022-08-21T19:07:15.469Z,21.50
2022-08-21T19:09:49.463Z,21.40
2022-08-21T19:12:29.522Z,21.40
2022-08-21T19:14:58.013Z,21.50
2022-08-21T19:17:24.981Z,21.40
2022-08-21T19:19:52.091Z,21.40
2022-08-21T19:22:18.902Z,21.30
2022-08-21T19:24:49.827Z,21.20
2022-08-21T19:27:34.252Z,21.30
2022-08-21T19:30:04.640Z,21.20
2022-08-21T19:32:31.751Z,21.10
2022-08-21T19:34:58.526Z,21.10
2022-08-21T19:37:25.294Z,21.00
2022-08-21T19:39:52.091Z,21.00
2022-08-21T19:42:20.103Z,21.00
2022-08-21T19:44:50.941Z,21.00
2022-08-21T19:47:22.459Z,21.00
2022-08-21T19:49:59.923Z,20.90
2022-08-21T19:52:27.318Z,20.80
2022-08-21T19:54:54.379Z,20.80
2022-08-21T19:57:21.154Z,20.70
2022-08-21T19:59:47.950Z,20.80
2022-08-21T20:02:16.557Z,20.80
2022-08-21T20:04:53.466Z,20.70
2022-08-21T20:07:26.592Z,20.70
2022-08-21T20:09:54.195Z,20.70
2022-08-21T20:12:20.999Z,20.60
2022-08-21T20:14:48.574Z,20.60
2022-08-21T20:17:17.459Z,20.60
2022-08-21T20:19:50.135Z,20.50
2022-08-21T20:22:19.733Z,20.50
2022-08-21T20:24:46.946Z,20.50
2022-08-21T20:27:19.619Z,20.50
2022-08-21T20:29:47.050Z,20.40
2022-08-21T20:32:17.555Z,20.40
2022-08-21T20:34:45.688Z,20.40
2022-08-21T20:37:12.575Z,20.40
2022-08-21T20:39:41.098Z,20.30
2022-08-21T20:42:09.958Z,20.30
2022-08-21T20:44:38.099Z,20.20
2022-08-21T20:47:14.553Z,20.30
2022-08-21T20:49:50.551Z,20.30
2022-08-21T20:52:17.493Z,20.20
2022-08-21T20:54:51.967Z,20.20
2022-08-21T20:57:25.586Z,20.20
2022-08-21T21:00:06.030Z,20.10
2022-08-21T21:02:42.835Z,20.10
2022-08-21T21:05:15.226Z,20.10
2022-08-21T21:08:00.215Z,20.10
2022-08-21T21:10:34.931Z,20.10
2022-08-21T21:13:08.555Z,20.10
2022-08-21T21:15:36.760Z,20.00
2022-08-21T21:18:14.079Z,19.90
2022-08-21T21:20:48.775Z,20.00
2022-08-21T21:23:25.340Z,19.90
2022-08-21T21:25:59.173Z,19.90
2022-08-21T21:28:35.119Z,19.90
2022-08-21T21:31:03.822Z,19.90
2022-08-21T21:33:30.795Z,19.80
2022-08-21T21:36:10.742Z,19.80
2022-08-21T21:38:51.551Z,19.80
2022-08-21T21:41:29.031Z,19.70
2022-08-21T21:44:19.367Z,19.70
2022-08-21T21:46:55.433Z,19.70
2022-08-21T21:49:33.917Z,19.70
2022-08-21T21:52:14.633Z,19.70
2022-08-21T21:55:02.373Z,19.60
2022-08-21T21:58:03.545Z,19.60
2022-08-21T22:00:33.783Z,19.60
2022-08-21T22:03:08.403Z,19.60
2022-08-21T22:05:52.559Z,19.60
2022-08-21T22:08:32.821Z,19.50
2022-08-21T22:11:08.961Z,19.50
2022-08-21T22:14:02.041Z,19.50
2022-08-21T22:16:30.466Z,19.40
2022-08-21T22:19:01.735Z,19.40
2022-08-21T22:21:33.404Z,19.40
2022-08-21T22:24:12.149Z,19.40
2022-08-21T22:26:44.270Z,19.30
2022-08-21T22:29:15.823Z,19.40
2022-08-21T22:31:43.469Z,19.30
2022-08-21T22:34:18.312Z,19.30
2022-08-21T22:36:54.342Z,19.30
2022-08-21T22:39:30.212Z,19.30
2022-08-21T22:42:07.861Z,19.30
2022-08-21T22:44:49.057Z,19.20
2022-08-21T22:47:21.542Z,19.30
2022-08-21T22:49:50.608Z,19.20
2022-08-21T22:52:22.842Z,19.20
2022-08-21T22:54:53.153Z,19.20
2022-08-21T22:57:25.666Z,19.10
2022-08-21T22:59:57.287Z,19.10
2022-08-21T23:02:44.019Z,19.10
2022-08-21T23:05:19.431Z,19.10
2022-08-21T23:07:49.762Z,19.00
2022-08-21T23:10:26.115Z,19.10
2022-08-21T23:12:58.711Z,19.10
2022-08-21T23:15:30.819Z,19.10
2022-08-21T23:18:05.957Z,19.00
2022-08-21T23:20:47.392Z,19.00
2022-08-21T23:23:26.853Z,19.00
2022-08-21T23:26:18.901Z,19.00
2022-08-21T23:29:04.621Z,18.90
2022-08-21T23:31:42.739Z,18.80
2022-08-21T23:34:20.250Z,18.80
2022-08-21T23:37:06.535Z,18.80
2022-08-21T23:39:51.603Z,18.70
2022-08-21T23:42:45.744Z,18.80
2022-08-21T23:45:22.437Z,18.70
2022-08-21T23:48:06.987Z,18.70
2022-08-21T23:50:40.420Z,18.70
2022-08-21T23:53:19.183Z,18.60
2022-08-21T23:55:58.499Z,18.60
2022-08-21T23:58:36.038Z,18.60
